Terminal Aerodrome Forecast
Issued by NWS

Current Version | Previous Version | Text Only | Print | Product List | Glossary On
Versions: 1 2 3 4 5 6 7 8 9 10 11 12 13 14 15 16
409
FTUS46 KSEW 241727
TAFCLM
TAF
KCLM 241727Z 2418/2518 VRB03KT P6SM SCT050 BKN200
      TEMPO 2418/2420 BKN050 BKN200
     FM242000 34005KT P6SM BKN050 BKN120 BKN200
     FM250100 28008KT P6SM SCT050 BKN120 OVC200
     FM250600 28008KT P6SM FEW013 BKN050 OVC100
     FM251200 VRB03KT P6SM BKN009 OVC050 PROB30 2512/2518 5SM -RA
      OVC009=

USA.gov is the U.S. government's official web portal to all federal, state and local government web resources and services.